Time;durP1;ratioP1;P1;durP2;ratioP2;P2;SDS_P1;SDS_P2;PMS_P1;PMS_P2;Temp;Humidity;BMP_temperature;BMP_pressure;BME280_temperature;BME280_humidity;BME280_pressure;Samples;Min_cycle;Max_cycle;Signal;HPM_P1;HPM_P2
2022/09/05 00:01:19;;;;;;;2.27;2.17;;;14.10;99.90;;;;;;474789;248;28467;-68
2022/09/05 00:03:20;;;;;;;2.40;2.03;;;14.10;99.90;;;;;;479021;248;28554;-69
2022/09/05 00:05:22;;;;;;;2.57;2.37;;;14.10;99.90;;;;;;474785;250;28398;-72
2022/09/05 00:07:23;;;;;;;2.10;2.00;;;14.00;99.90;;;;;;478929;248;28475;-68
2022/09/05 00:09:24;;;;;;;2.40;2.20;;;14.00;99.90;;;;;;474730;249;28484;-70
2022/09/05 00:11:26;;;;;;;2.20;2.10;;;14.00;99.90;;;;;;478950;248;28254;-68
2022/09/05 00:13:27;;;;;;;2.20;2.10;;;14.00;99.90;;;;;;478948;248;28359;-69
2022/09/05 00:15:28;;;;;;;2.10;2.00;;;14.10;99.90;;;;;;474779;250;28515;-73
2022/09/05 00:17:29;;;;;;;2.37;2.20;;;13.90;99.90;;;;;;478875;248;28228;-68
2022/09/05 00:19:30;;;;;;;2.20;2.10;;;13.90;99.90;;;;;;474761;250;29468;-69
2022/09/05 00:21:32;;;;;;;2.10;2.00;;;13.90;99.90;;;;;;479021;248;28930;-68
2022/09/05 00:23:33;;;;;;;2.37;2.20;;;13.90;99.90;;;;;;474739;249;28883;-69
2022/09/05 00:25:34;;;;;;;2.20;2.10;;;14.00;99.90;;;;;;479030;245;28331;-72
2022/09/05 00:27:35;;;;;;;2.43;2.23;;;13.90;99.90;;;;;;474682;249;28394;-69
2022/09/05 00:29:37;;;;;;;2.47;2.03;;;13.90;99.90;;;;;;479020;248;28286;-69
2022/09/05 00:31:38;;;;;;;1.97;1.87;;;13.90;99.90;;;;;;474771;250;28380;-68
2022/09/05 00:33:39;;;;;;;2.00;1.90;;;13.90;99.90;;;;;;479012;248;28366;-69
2022/09/05 00:35:40;;;;;;;2.53;2.40;;;13.90;99.90;;;;;;474762;250;28457;-72
2022/09/05 00:37:42;;;;;;;2.10;1.90;;;13.90;99.90;;;;;;478838;248;28346;-68
2022/09/05 00:39:43;;;;;;;2.20;2.10;;;13.90;99.90;;;;;;474783;250;28171;-69
2022/09/05 00:41:44;;;;;;;2.00;1.90;;;13.90;99.90;;;;;;479044;248;28229;-68
2022/09/05 00:43:45;;;;;;;2.47;2.33;;;13.90;99.90;;;;;;474769;250;29486;-69
2022/09/05 00:45:47;;;;;;;2.30;2.20;;;13.90;99.90;;;;;;479015;248;28886;-70
2022/09/05 00:47:48;;;;;;;2.20;2.00;;;13.90;99.90;;;;;;474569;249;28895;-68
2022/09/05 00:49:49;;;;;;;2.00;1.90;;;13.90;99.90;;;;;;479009;246;28184;-69
2022/09/05 00:51:50;;;;;;;2.10;2.00;;;13.90;99.90;;;;;;474777;249;28577;-68
2022/09/05 00:53:52;;;;;;;1.93;1.83;;;13.90;99.90;;;;;;479044;248;28421;-68
2022/09/05 00:55:53;;;;;;;3.10;2.20;;;13.90;99.90;;;;;;474787;250;28271;-71
2022/09/05 00:57:54;;;;;;;2.10;2.00;;;13.90;99.90;;;;;;478832;248;28317;-68
2022/09/05 00:59:55;;;;;;;2.03;1.93;;;13.80;99.90;;;;;;474784;249;28497;-69
2022/09/05 01:01:57;;;;;;;2.07;1.97;;;13.80;99.90;;;;;;479044;248;28389;-71
2022/09/05 01:03:58;;;;;;;2.23;2.13;;;13.80;99.90;;;;;;474779;250;28142;-69
2022/09/05 01:05:59;;;;;;;2.30;2.20;;;13.70;99.90;;;;;;478993;245;28267;-71
2022/09/05 01:08:00;;;;;;;2.40;2.23;;;13.70;99.90;;;;;;474597;250;28720;-69
2022/09/05 01:10:02;;;;;;;4.43;2.30;;;13.70;99.90;;;;;;478997;248;28834;-68
2022/09/05 01:12:03;;;;;;;2.40;2.30;;;13.70;99.90;;;;;;474780;249;28933;-68
2022/09/05 01:14:04;;;;;;;2.40;2.20;;;13.70;99.90;;;;;;479013;248;28683;-69
2022/09/05 01:16:05;;;;;;;2.57;2.37;;;13.60;99.90;;;;;;474737;249;28259;-69
2022/09/05 01:18:07;;;;;;;2.30;2.20;;;13.60;99.90;;;;;;478947;248;28265;-68
2022/09/05 01:20:08;;;;;;;2.43;2.33;;;13.60;99.90;;;;;;474738;250;28244;-68
2022/09/05 01:22:09;;;;;;;2.40;2.30;;;13.50;99.90;;;;;;478999;248;28244;-69
2022/09/05 01:24:10;;;;;;;2.50;2.30;;;13.50;99.90;;;;;;474764;250;28486;-68
2022/09/05 01:26:12;;;;;;;3.00;2.80;;;13.50;99.90;;;;;;478840;248;28812;-69
2022/09/05 01:28:13;;;;;;;2.40;2.30;;;13.40;99.90;;;;;;474746;249;28146;-68
2022/09/05 01:30:14;;;;;;;2.43;2.33;;;13.50;99.90;;;;;;478969;248;28256;-70
2022/09/05 01:32:15;;;;;;;2.30;2.20;;;13.50;99.90;;;;;;474742;249;29055;-68
2022/09/05 01:34:17;;;;;;;2.30;2.20;;;13.50;99.90;;;;;;479021;248;28843;-68
2022/09/05 01:36:18;;;;;;;2.53;2.43;;;13.50;99.90;;;;;;474701;250;28813;-69
2022/09/05 01:38:19;;;;;;;2.33;2.23;;;13.50;99.90;;;;;;479033;248;28807;-68
2022/09/05 01:40:20;;;;;;;2.30;2.20;;;13.50;99.90;;;;;;474778;250;28254;-68
2022/09/05 01:42:22;;;;;;;2.10;2.00;;;13.60;99.90;;;;;;479039;248;28165;-68
2022/09/05 01:44:23;;;;;;;2.33;2.23;;;13.60;99.90;;;;;;474796;250;28321;-69
2022/09/05 01:46:24;;;;;;;2.33;2.23;;;13.50;99.90;;;;;;478893;248;28175;-70
2022/09/05 01:48:25;;;;;;;2.43;2.33;;;13.60;99.90;;;;;;474780;249;28351;-68
2022/09/05 01:50:27;;;;;;;2.10;2.00;;;13.50;99.90;;;;;;479047;248;28887;-69
2022/09/05 01:52:28;;;;;;;2.40;2.20;;;13.50;99.90;;;;;;474780;250;28612;-68
2022/09/05 01:54:29;;;;;;;2.13;1.93;;;13.60;99.90;;;;;;479018;248;28137;-68
2022/09/05 01:56:30;;;;;;;2.33;2.23;;;13.60;99.90;;;;;;474674;249;28850;-70
2022/09/05 01:58:32;;;;;;;2.33;2.23;;;13.50;99.90;;;;;;479023;248;28789;-69
2022/09/05 02:00:33;;;;;;;2.20;2.10;;;13.50;99.90;;;;;;474790;250;28878;-68
2022/09/05 02:02:34;;;;;;;2.60;2.40;;;13.50;99.90;;;;;;479039;248;28807;-67
2022/09/05 02:04:35;;;;;;;3.30;2.50;;;13.30;99.90;;;;;;479030;248;28133;-69
2022/09/05 02:06:37;;;;;;;3.63;2.50;;;13.30;99.90;;;;;;474608;249;28338;-68
2022/09/05 02:08:38;;;;;;;3.33;2.57;;;13.20;99.90;;;;;;479036;248;28121;-70
2022/09/05 02:10:39;;;;;;;3.00;2.70;;;13.10;99.90;;;;;;474755;250;28298;-69
2022/09/05 02:12:42;;;;;;;2.93;2.73;;;;;;;;;;479039;248;28165;-70
2022/09/05 02:14:43;;;;;;;2.63;2.43;;;13.30;99.90;;;;;;469282;253;27509;-68
2022/09/05 02:16:44;;;;;;;2.73;2.60;;;13.40;99.90;;;;;;478980;246;28132;-69
2022/09/05 02:18:45;;;;;;;2.40;2.30;;;13.40;99.90;;;;;;474772;250;28498;-68
2022/09/05 02:20:47;;;;;;;2.60;2.47;;;13.40;99.90;;;;;;479054;248;28156;-68
2022/09/05 02:22:49;;;;;;;2.50;2.30;;;;;;;;;;474789;250;28298;-70
2022/09/05 02:24:50;;;;;;;2.20;2.10;;;13.40;99.90;;;;;;479046;248;26875;-68
2022/09/05 02:26:52;;;;;;;2.63;2.47;;;13.40;99.90;;;;;;474687;250;28894;-69
2022/09/05 02:28:54;;;;;;;2.23;2.13;;;;;;;;;;479053;248;28156;-69
2022/09/05 02:30:55;;;;;;;2.50;2.30;;;13.40;99.90;;;;;;469266;253;26704;-70
2022/09/05 02:32:56;;;;;;;2.30;2.20;;;13.40;99.90;;;;;;479023;248;28541;-68
2022/09/05 02:34:58;;;;;;;2.20;2.07;;;13.40;99.90;;;;;;474752;250;28774;-68
2022/09/05 02:36:59;;;;;;;2.50;2.37;;;13.40;99.90;;;;;;478977;248;28710;-73
2022/09/05 02:39:00;;;;;;;2.50;2.37;;;13.20;99.90;;;;;;474797;248;28786;-68
2022/09/05 02:41:01;;;;;;;2.70;2.50;;;13.30;99.90;;;;;;479033;248;28849;-69
2022/09/05 02:43:04;;;;;;;2.93;2.70;;;;;;;;;;474796;249;28301;-69
2022/09/05 02:45:05;;;;;;;2.50;2.30;;;13.20;99.90;;;;;;479027;248;26781;-72
2022/09/05 02:47:08;;;;;;;2.20;2.10;;;;;;;;;;474711;250;28249;-69
2022/09/05 02:49:09;;;;;;;2.27;2.07;;;13.20;99.90;;;;;;479034;248;26595;-69
2022/09/05 02:51:10;;;;;;;2.63;2.53;;;13.30;99.90;;;;;;474771;249;28578;-70
2022/09/05 02:53:12;;;;;;;2.20;2.00;;;13.20;99.90;;;;;;479031;248;28224;-68
2022/09/05 02:55:13;;;;;;;2.20;2.10;;;13.20;99.90;;;;;;474752;249;28241;-69
2022/09/05 02:57:14;;;;;;;2.57;2.37;;;13.20;99.90;;;;;;478998;248;28265;-69
2022/09/05 02:59:15;;;;;;;2.13;2.03;;;13.30;99.90;;;;;;474788;250;28360;-69
2022/09/05 03:01:16;;;;;;;2.27;2.17;;;13.30;99.90;;;;;;479011;248;28186;-69
2022/09/05 03:03:18;;;;;;;2.20;2.10;;;13.30;99.90;;;;;;474769;250;29238;-71
2022/09/05 03:05:19;;;;;;;2.20;2.10;;;13.30;99.90;;;;;;479025;245;28595;-69
2022/09/05 03:07:20;;;;;;;2.20;2.10;;;13.20;99.90;;;;;;474704;249;28754;-70
2022/09/05 03:09:21;;;;;;;2.23;2.10;;;13.20;99.90;;;;;;479024;248;28320;-68
2022/09/05 03:11:23;;;;;;;2.73;2.53;;;13.10;99.90;;;;;;474722;250;28387;-70
2022/09/05 03:13:25;;;;;;;2.33;2.23;;;;;;;;;;479034;248;28466;-68
2022/09/05 03:15:26;;;;;;;2.20;2.10;;;13.10;99.90;;;;;;469263;253;26631;-69
2022/09/05 03:17:27;;;;;;;2.40;2.20;;;13.20;99.90;;;;;;478958;248;29507;-68
2022/09/05 03:19:29;;;;;;;2.20;2.10;;;13.20;99.90;;;;;;474730;250;28732;-69
2022/09/05 03:21:30;;;;;;;2.10;2.00;;;13.20;99.90;;;;;;479040;248;28802;-68
2022/09/05 03:23:31;;;;;;;1.97;1.87;;;13.10;99.90;;;;;;479022;248;28202;-68
2022/09/05 03:25:33;;;;;;;2.30;2.20;;;13.10;99.90;;;;;;474767;249;28392;-70
2022/09/05 03:27:34;;;;;;;2.10;2.00;;;13.10;99.90;;;;;;478969;248;28121;-69
2022/09/05 03:29:35;;;;;;;2.40;2.30;;;13.10;99.90;;;;;;474801;249;28274;-69
2022/09/05 03:31:36;;;;;;;2.40;2.30;;;13.00;99.90;;;;;;479040;248;28160;-72
2022/09/05 03:33:38;;;;;;;2.37;2.20;;;12.90;99.90;;;;;;474762;250;28926;-68
2022/09/05 03:35:39;;;;;;;2.40;2.30;;;13.00;99.90;;;;;;479020;248;28508;-69
2022/09/05 03:37:41;;;;;;;2.37;2.20;;;;;;;;;;474730;249;28867;-68
2022/09/05 03:39:42;;;;;;;2.30;2.20;;;13.00;99.90;;;;;;479018;248;26566;-69
2022/09/05 03:41:45;;;;;;;2.07;1.97;;;13.00;99.90;;;;;;474761;250;29180;-70
2022/09/05 03:43:46;;;;;;;2.30;2.20;;;13.10;99.90;;;;;;479034;248;29030;-68
2022/09/05 03:45:49;;;;;;;2.13;2.03;;;;;;;;;;479013;248;28799;-68
2022/09/05 03:47:50;;;;;;;2.10;2.00;;;13.10;99.90;;;;;;469197;253;26891;-68
2022/09/05 03:49:51;;;;;;;2.10;2.00;;;13.10;99.90;;;;;;479011;248;28171;-70
2022/09/05 03:51:52;;;;;;;2.03;1.93;;;13.10;99.90;;;;;;479038;248;28687;-69
2022/09/05 03:53:54;;;;;;;1.90;1.80;;;13.00;99.90;;;;;;474775;249;29171;-68
2022/09/05 03:55:56;;;;;;;3.03;2.70;;;;;;;;;;479033;248;28598;-68
2022/09/05 03:57:57;;;;;;;2.40;2.20;;;13.00;99.90;;;;;;469189;252;27030;-70
2022/09/05 04:00:01;;;;;;;2.37;2.17;;;13.10;99.90;;;;;;479004;248;28795;-68
2022/09/05 04:02:03;;;;;;;2.30;2.20;;;13.10;99.90;;;;;;474655;250;28894;-68
2022/09/05 04:04:01;;;;;;;2.07;1.97;;;13.10;99.90;;;;;;478826;248;28768;-73
2022/09/05 04:06:02;;;;;;;2.20;2.10;;;13.10;99.90;;;;;;474755;250;28704;-70
2022/09/05 04:08:04;;;;;;;2.30;2.20;;;13.00;99.90;;;;;;478984;248;29275;-69
2022/09/05 04:10:05;;;;;;;2.47;2.30;;;13.00;99.90;;;;;;474760;249;28340;-69
2022/09/05 04:12:06;;;;;;;2.27;2.10;;;13.00;99.90;;;;;;479011;248;28272;-69
2022/09/05 04:14:07;;;;;;;2.40;2.30;;;12.90;99.90;;;;;;474725;250;28487;-70
2022/09/05 04:16:09;;;;;;;2.57;2.47;;;12.80;99.90;;;;;;478954;248;28843;-68
2022/09/05 04:18:11;;;;;;;2.30;2.20;;;;;;;;;;474756;250;28062;-68
2022/09/05 04:20:12;;;;;;;2.20;2.10;;;12.80;99.90;;;;;;478985;248;27926;-69
2022/09/05 04:22:13;;;;;;;2.50;2.20;;;12.80;99.90;;;;;;474797;249;28881;-72
2022/09/05 04:24:15;;;;;;;2.50;2.30;;;12.70;99.90;;;;;;479050;245;28273;-68
2022/09/05 04:26:16;;;;;;;2.33;2.23;;;12.80;99.90;;;;;;474719;249;28282;-71
2022/09/05 04:28:17;;;;;;;2.13;2.03;;;12.80;99.90;;;;;;479049;248;28245;-69
2022/09/05 04:30:18;;;;;;;2.47;2.37;;;12.90;99.90;;;;;;474793;250;28262;-68
2022/09/05 04:32:20;;;;;;;2.30;2.20;;;12.90;99.90;;;;;;479028;248;28309;-69
2022/09/05 04:34:21;;;;;;;2.57;2.40;;;13.00;99.90;;;;;;474785;250;28799;-68
2022/09/05 04:36:22;;;;;;;2.40;2.30;;;13.00;99.90;;;;;;478971;248;28853;-70
2022/09/05 04:38:25;;;;;;;2.40;2.30;;;;;;;;;;474780;248;28678;-68
2022/09/05 04:40:26;;;;;;;2.10;2.00;;;13.00;99.90;;;;;;479026;248;27353;-71
2022/09/05 04:42:27;;;;;;;3.07;2.33;;;13.00;99.90;;;;;;474793;250;28797;-69
2022/09/05 04:44:30;;;;;;;2.40;2.30;;;;;;;;;;479025;248;28933;-68
2022/09/05 04:46:31;;;;;;;2.60;2.40;;;12.90;99.90;;;;;;469225;253;26624;-69
2022/09/05 04:48:32;;;;;;;2.20;2.10;;;12.90;99.90;;;;;;478972;248;28909;-71
2022/09/05 04:50:35;;;;;;;2.83;2.63;;;;;;;;;;474792;249;28858;-70
2022/09/05 04:52:36;;;;;;;2.10;2.00;;;12.90;99.90;;;;;;478982;248;27122;-69
2022/09/05 04:54:37;;;;;;;2.70;2.50;;;12.90;99.90;;;;;;474750;250;28690;-69
2022/09/05 04:56:38;;;;;;;2.30;2.20;;;12.90;99.90;;;;;;478930;248;28818;-72
2022/09/05 04:58:40;;;;;;;2.40;2.30;;;12.90;99.90;;;;;;474738;249;28336;-69
2022/09/05 05:00:41;;;;;;;2.77;2.57;;;12.90;99.90;;;;;;478897;248;28156;-69
2022/09/05 05:02:42;;;;;;;3.13;2.20;;;12.90;99.90;;;;;;474719;249;28272;-68
2022/09/05 05:04:43;;;;;;;2.60;2.40;;;12.90;99.90;;;;;;478980;248;28776;-69
2022/09/05 05:06:45;;;;;;;2.20;2.10;;;12.80;99.90;;;;;;474717;249;28400;-74
2022/09/05 05:08:46;;;;;;;2.30;2.20;;;12.80;99.90;;;;;;478997;248;28261;-68
2022/09/05 05:10:47;;;;;;;2.63;2.43;;;12.90;99.90;;;;;;474751;249;28930;-70
2022/09/05 05:12:48;;;;;;;2.60;2.03;;;12.90;99.90;;;;;;479011;248;28285;-69
2022/09/05 05:14:50;;;;;;;2.30;2.10;;;13.00;99.90;;;;;;474777;249;28440;-69
2022/09/05 05:16:51;;;;;;;2.10;2.00;;;13.00;99.90;;;;;;479014;248;28852;-70
2022/09/05 05:18:52;;;;;;;2.13;2.03;;;13.00;99.90;;;;;;474801;250;28701;-68
2022/09/05 05:20:53;;;;;;;2.50;2.07;;;13.00;99.90;;;;;;479032;248;28736;-69
2022/09/05 05:22:55;;;;;;;2.30;2.20;;;13.10;99.90;;;;;;474779;250;28215;-69
2022/09/05 05:24:57;;;;;;;2.23;2.13;;;;;;;;;;479043;248;28217;-71
2022/09/05 05:26:58;;;;;;;2.17;2.07;;;13.10;99.90;;;;;;469243;253;26594;-69
2022/09/05 05:28:59;;;;;;;2.00;1.90;;;13.00;99.90;;;;;;479022;248;28680;-70
2022/09/05 05:31:01;;;;;;;2.40;2.20;;;13.00;99.90;;;;;;479030;248;29290;-69
2022/09/05 05:33:02;;;;;;;2.30;2.20;;;13.00;99.90;;;;;;474800;250;28774;-68
2022/09/05 05:35:03;;;;;;;2.40;2.20;;;12.90;99.90;;;;;;479031;248;28841;-68
2022/09/05 05:37:04;;;;;;;2.40;2.30;;;13.00;99.90;;;;;;474730;250;28367;-69
2022/09/05 05:39:06;;;;;;;2.10;2.00;;;13.00;99.90;;;;;;478993;248;28165;-70
2022/09/05 05:41:07;;;;;;;2.53;2.43;;;13.00;99.90;;;;;;474771;250;28478;-69
2022/09/05 05:43:08;;;;;;;2.60;2.40;;;13.00;99.90;;;;;;479038;246;28159;-69
2022/09/05 05:45:09;;;;;;;2.57;2.40;;;13.00;99.90;;;;;;474777;249;28383;-71
2022/09/05 05:47:11;;;;;;;2.07;1.97;;;13.00;99.90;;;;;;478995;248;28258;-68
2022/09/05 05:49:13;;;;;;;2.60;2.40;;;13.00;99.90;;;;;;474788;250;29000;-68
2022/09/05 05:51:15;;;;;;;2.20;2.10;;;;;;;;;;478962;248;29196;-68
2022/09/05 05:53:16;;;;;;;2.43;2.33;;;13.10;99.90;;;;;;469266;253;26659;-71
2022/09/05 05:55:17;;;;;;;2.33;2.13;;;13.10;99.90;;;;;;479032;248;28329;-69
2022/09/05 05:57:18;;;;;;;2.47;2.37;;;13.10;99.90;;;;;;474733;250;28286;-69
2022/09/05 05:59:19;;;;;;;2.60;2.40;;;13.10;99.90;;;;;;479003;248;28224;-72
2022/09/05 06:01:21;;;;;;;2.50;2.30;;;13.20;99.90;;;;;;474775;250;28900;-69
2022/09/05 06:03:22;;;;;;;2.63;2.33;;;13.20;99.90;;;;;;479023;245;28309;-69
2022/09/05 06:05:23;;;;;;;2.70;2.50;;;13.30;99.90;;;;;;474783;250;28215;-69
2022/09/05 06:07:24;;;;;;;2.60;2.40;;;13.40;99.90;;;;;;478978;248;28623;-69
2022/09/05 06:09:26;;;;;;;2.10;2.00;;;13.50;99.90;;;;;;474763;249;28966;-69
2022/09/05 06:11:27;;;;;;;2.40;2.30;;;13.50;99.90;;;;;;479051;248;29362;-68
2022/09/05 06:13:28;;;;;;;1.83;1.73;;;13.50;99.90;;;;;;474765;250;28258;-70
2022/09/05 06:15:29;;;;;;;2.43;2.33;;;13.60;99.90;;;;;;479048;245;28124;-68
2022/09/05 06:17:31;;;;;;;2.30;2.20;;;13.60;99.90;;;;;;474735;249;28258;-70
2022/09/05 06:19:32;;;;;;;2.10;2.00;;;13.70;99.90;;;;;;479049;248;28253;-69
2022/09/05 06:21:33;;;;;;;2.17;2.07;;;13.60;99.90;;;;;;474781;250;28233;-69
2022/09/05 06:23:34;;;;;;;2.50;2.30;;;13.70;99.90;;;;;;479051;248;28186;-69
2022/09/05 06:25:36;;;;;;;2.20;2.10;;;13.70;99.90;;;;;;474709;250;28456;-69
2022/09/05 06:27:37;;;;;;;3.80;2.60;;;13.70;99.90;;;;;;478335;248;28251;-69
2022/09/05 06:29:38;;;;;;;2.20;2.10;;;13.70;99.90;;;;;;473522;249;28688;-69
2022/09/05 06:31:39;;;;;;;2.50;2.40;;;13.80;99.90;;;;;;477848;248;29390;-69
2022/09/05 06:33:41;;;;;;;2.20;2.10;;;13.80;99.90;;;;;;474617;249;28921;-70
2022/09/05 06:35:42;;;;;;;2.43;2.23;;;13.80;99.90;;;;;;479028;248;28741;-69
2022/09/05 06:37:43;;;;;;;2.23;2.13;;;13.80;99.90;;;;;;474707;249;28339;-70
2022/09/05 06:39:45;;;;;;;1.90;1.80;;;13.90;99.90;;;;;;479044;248;28257;-72
2022/09/05 06:41:46;;;;;;;2.10;2.00;;;14.00;99.90;;;;;;474777;249;28540;-69
2022/09/05 06:43:47;;;;;;;2.40;2.30;;;14.10;99.90;;;;;;479021;248;28565;-69
2022/09/05 06:45:48;;;;;;;2.20;2.10;;;14.20;99.90;;;;;;474795;250;28440;-69
2022/09/05 06:47:49;;;;;;;2.30;2.20;;;14.30;99.90;;;;;;478931;248;28167;-70
2022/09/05 06:49:51;;;;;;;2.20;2.10;;;14.40;99.90;;;;;;474800;249;28485;-72
2022/09/05 06:51:52;;;;;;;2.50;2.27;;;14.50;99.90;;;;;;479027;248;28466;-69
2022/09/05 06:53:53;;;;;;;2.00;1.90;;;14.60;99.90;;;;;;474777;250;28985;-70
2022/09/05 06:55:55;;;;;;;2.43;2.33;;;14.60;99.90;;;;;;479009;248;29048;-68
2022/09/05 06:57:56;;;;;;;2.47;2.30;;;14.80;99.90;;;;;;474716;249;28895;-69
2022/09/05 06:59:57;;;;;;;2.20;2.10;;;14.80;99.90;;;;;;479042;248;28982;-72
2022/09/05 07:01:58;;;;;;;2.10;2.00;;;14.80;99.90;;;;;;474773;250;28919;-69
2022/09/05 07:04:00;;;;;;;2.10;2.00;;;14.90;99.90;;;;;;479026;248;28808;-70
2022/09/05 07:06:01;;;;;;;2.40;2.20;;;15.00;99.90;;;;;;474755;250;28890;-78
2022/09/05 07:08:03;;;;;;;2.30;2.20;;;15.10;99.90;;;;;;478992;248;28540;-70
2022/09/05 07:10:03;;;;;;;2.70;2.50;;;15.10;99.90;;;;;;474717;250;28612;-71
2022/09/05 07:12:05;;;;;;;2.70;2.50;;;15.20;99.90;;;;;;479041;248;28784;-69
2022/09/05 07:14:07;;;;;;;3.33;2.80;;;15.30;99.90;;;;;;474775;249;28907;-69
2022/09/05 07:16:08;;;;;;;2.80;2.60;;;15.40;99.90;;;;;;478895;248;28765;-71
2022/09/05 07:18:08;;;;;;;2.90;2.60;;;15.50;99.90;;;;;;478930;248;28368;-69
2022/09/05 07:20:12;;;;;;;2.90;2.43;;;15.50;99.90;;;;;;479043;248;29292;-70
2022/09/05 07:22:11;;;;;;;2.20;2.10;;;15.60;99.90;;;;;;474666;250;29499;-69
2022/09/05 07:24:12;;;;;;;2.37;2.17;;;15.70;99.90;;;;;;478996;248;29259;-70
2022/09/05 07:26:13;;;;;;;2.87;2.67;;;15.80;99.90;;;;;;474712;250;29334;-69
2022/09/05 07:28:15;;;;;;;2.83;2.43;;;15.90;99.90;;;;;;479022;248;28759;-69
2022/09/05 07:30:16;;;;;;;3.23;2.63;;;15.90;99.90;;;;;;474782;249;28986;-71
2022/09/05 07:32:17;;;;;;;2.17;2.07;;;16.10;99.90;;;;;;479012;248;28872;-69
2022/09/05 07:34:18;;;;;;;2.70;2.50;;;16.30;99.90;;;;;;474790;249;28926;-70
2022/09/05 07:36:20;;;;;;;2.63;2.43;;;16.40;99.90;;;;;;478955;245;28893;-69
2022/09/05 07:38:21;;;;;;;3.40;2.33;;;16.40;99.90;;;;;;474781;250;28974;-69
2022/09/05 07:40:22;;;;;;;2.73;2.07;;;16.50;99.90;;;;;;479026;248;28919;-71
2022/09/05 07:42:23;;;;;;;2.13;2.03;;;16.60;99.90;;;;;;474784;250;28981;-69
2022/09/05 07:44:26;;;;;;;2.60;2.40;;;16.70;99.90;;;;;;479015;248;28808;-70
2022/09/05 07:46:26;;;;;;;2.87;2.67;;;16.90;99.90;;;;;;474675;250;29773;-70
2022/09/05 07:48:27;;;;;;;2.40;2.30;;;17.00;99.90;;;;;;479022;248;29385;-70
2022/09/05 07:50:28;;;;;;;2.60;2.40;;;17.10;99.90;;;;;;474788;249;29398;-71
2022/09/05 07:52:30;;;;;;;2.10;2.00;;;17.20;99.90;;;;;;479035;248;28799;-69
2022/09/05 07:54:31;;;;;;;2.20;2.10;;;17.20;99.90;;;;;;474787;249;28895;-71
2022/09/05 07:56:32;;;;;;;2.10;2.00;;;17.30;99.90;;;;;;478980;248;28773;-70
2022/09/05 07:58:33;;;;;;;2.27;2.17;;;17.30;99.90;;;;;;474805;250;28847;-70
2022/09/05 08:00:35;;;;;;;2.40;2.30;;;17.40;99.90;;;;;;478993;248;28869;-74
2022/09/05 08:02:39;;;;;;;2.00;1.90;;;17.50;99.90;;;;;;474767;250;28871;-69
2022/09/05 08:04:38;;;;;;;2.73;2.53;;;17.60;99.90;;;;;;478887;248;28904;-69
2022/09/05 08:06:38;;;;;;;2.40;2.20;;;17.80;99.90;;;;;;478984;248;28796;-69
2022/09/05 08:08:40;;;;;;;2.30;2.10;;;17.90;99.90;;;;;;474793;250;28868;-70
2022/09/05 08:10:41;;;;;;;2.10;2.00;;;18.00;99.90;;;;;;479045;248;29389;-71
2022/09/05 08:12:42;;;;;;;2.37;2.23;;;18.10;99.90;;;;;;474782;250;29315;-69
2022/09/05 08:14:44;;;;;;;2.30;2.20;;;18.10;99.90;;;;;;479024;248;29317;-69
2022/09/05 08:16:45;;;;;;;2.00;1.90;;;18.20;99.90;;;;;;474692;249;29340;-69
2022/09/05 08:18:48;;;;;;;2.70;2.50;;;18.30;99.90;;;;;;479069;248;28831;-70
2022/09/05 08:20:47;;;;;;;2.50;2.30;;;18.40;99.90;;;;;;474684;250;28820;-70
2022/09/05 08:22:48;;;;;;;2.30;2.10;;;18.40;99.90;;;;;;479013;248;28809;-70
2022/09/05 08:24:50;;;;;;;2.40;2.30;;;18.70;99.90;;;;;;474778;250;28989;-71
2022/09/05 08:26:51;;;;;;;2.20;2.10;;;18.80;99.90;;;;;;478972;248;28879;-69
2022/09/05 08:28:54;;;;;;;2.27;2.17;;;18.90;99.90;;;;;;474776;250;28937;-69
2022/09/05 08:30:53;;;;;;;2.50;2.40;;;19.00;99.90;;;;;;478943;248;28819;-72
2022/09/05 08:32:55;;;;;;;2.43;2.33;;;19.30;99.90;;;;;;479016;248;28852;-69
2022/09/05 08:34:56;;;;;;;2.20;2.10;;;19.40;99.90;;;;;;474775;249;29327;-70
2022/09/05 08:36:57;;;;;;;2.30;2.20;;;19.50;99.90;;;;;;478988;248;29308;-70
2022/09/05 08:38:58;;;;;;;3.27;2.30;;;19.40;99.90;;;;;;474774;250;29396;-70
2022/09/05 08:41:00;;;;;;;2.33;2.23;;;19.50;99.90;;;;;;479004;248;29313;-73
2022/09/05 08:43:01;;;;;;;2.40;2.20;;;19.70;99.90;;;;;;474745;250;28879;-70
2022/09/05 08:45:02;;;;;;;2.60;2.40;;;19.80;99.90;;;;;;479024;248;28879;-70
2022/09/05 08:47:03;;;;;;;2.80;2.60;;;20.00;99.90;;;;;;474721;249;28886;-70
2022/09/05 08:49:05;;;;;;;2.43;2.33;;;19.90;99.90;;;;;;479042;248;28777;-70
2022/09/05 08:51:06;;;;;;;2.40;2.30;;;19.80;99.90;;;;;;474789;249;28995;-71
2022/09/05 08:53:08;;;;;;;2.57;2.37;;;19.80;99.90;;;;;;479024;248;28777;-69
2022/09/05 08:55:08;;;;;;;2.60;2.40;;;19.90;99.90;;;;;;474781;250;28923;-70
2022/09/05 08:57:10;;;;;;;2.30;2.20;;;20.00;99.90;;;;;;478986;248;28785;-70
2022/09/05 08:59:11;;;;;;;2.70;2.50;;;20.10;99.90;;;;;;474797;249;29344;-69
2022/09/05 09:01:12;;;;;;;2.20;2.10;;;20.20;99.90;;;;;;479009;248;29375;-71
2022/09/05 09:03:13;;;;;;;2.87;2.67;;;20.50;99.90;;;;;;474789;249;29337;-69
2022/09/05 09:05:15;;;;;;;2.40;2.20;;;20.50;99.90;;;;;;479044;248;29433;-71
2022/09/05 09:07:16;;;;;;;2.50;2.40;;;20.50;99.90;;;;;;474748;250;28901;-70
2022/09/05 09:09:17;;;;;;;2.40;2.20;;;20.50;99.90;;;;;;479030;248;28892;-70
2022/09/05 09:11:18;;;;;;;2.80;2.60;;;20.50;99.90;;;;;;474789;249;28928;-70
2022/09/05 09:13:20;;;;;;;3.40;3.20;;;21.00;99.90;;;;;;479043;248;28857;-70
2022/09/05 09:15:21;;;;;;;3.20;3.00;;;21.40;99.90;;;;;;474770;249;28995;-71
2022/09/05 09:17:22;;;;;;;3.10;2.90;;;21.70;99.90;;;;;;479009;248;28765;-71
2022/09/05 09:19:23;;;;;;;3.00;2.80;;;21.30;99.90;;;;;;474787;250;28878;-69
2022/09/05 09:21:25;;;;;;;3.17;2.97;;;21.10;99.90;;;;;;479057;248;28808;-72
2022/09/05 09:23:26;;;;;;;3.27;2.77;;;21.10;99.90;;;;;;474804;249;28867;-69
2022/09/05 09:25:27;;;;;;;3.57;3.17;;;21.30;99.90;;;;;;479045;248;29320;-70
2022/09/05 09:27:28;;;;;;;3.07;2.87;;;21.30;99.90;;;;;;474745;249;29800;-69
2022/09/05 09:29:33;;;;;;;2.80;2.60;;;21.30;99.90;;;;;;475059;248;47919;-70
2022/09/05 09:31:31;;;;;;;3.10;2.50;;;21.10;99.90;;;;;;474658;250;27558;-73
2022/09/05 09:33:32;;;;;;;4.13;2.73;;;21.20;99.90;;;;;;479049;248;28766;-70
2022/09/05 09:35:33;;;;;;;2.40;2.27;;;21.30;99.90;;;;;;474777;249;29076;-70
2022/09/05 09:37:35;;;;;;;2.50;1.90;;;21.30;99.90;;;;;;478994;248;28768;-70
2022/09/05 09:39:36;;;;;;;2.23;2.13;;;21.20;99.90;;;;;;474746;250;28894;-70
2022/09/05 09:41:37;;;;;;;2.13;2.03;;;21.20;99.90;;;;;;479042;248;28807;-71
2022/09/05 09:43:38;;;;;;;2.30;2.20;;;21.30;99.90;;;;;;474785;249;28902;-70
2022/09/05 09:45:40;;;;;;;1.93;1.83;;;21.50;99.90;;;;;;479036;248;28816;-71
2022/09/05 09:47:41;;;;;;;2.33;2.13;;;21.50;99.90;;;;;;474716;249;28950;-69
2022/09/05 09:49:42;;;;;;;2.60;2.23;;;21.50;99.90;;;;;;478857;248;29275;-69
2022/09/05 09:51:43;;;;;;;2.40;2.23;;;21.70;99.90;;;;;;474808;249;29473;-73
2022/09/05 09:53:45;;;;;;;3.70;2.60;;;21.70;99.90;;;;;;478986;248;29372;-73
2022/09/05 09:55:46;;;;;;;2.43;2.33;;;21.90;99.90;;;;;;474764;249;28905;-69
2022/09/05 09:57:47;;;;;;;2.90;2.20;;;22.00;99.90;;;;;;478985;248;28777;-69
2022/09/05 09:59:48;;;;;;;2.67;2.47;;;22.10;99.90;;;;;;474730;250;29012;-70
2022/09/05 10:01:53;;;;;;;2.83;2.63;;;21.90;99.90;;;;;;479006;248;28819;-74
2022/09/05 10:03:51;;;;;;;2.63;2.43;;;22.30;99.90;;;;;;474641;250;28894;-70
2022/09/05 10:05:52;;;;;;;2.57;2.30;;;22.30;99.90;;;;;;479033;248;28805;-71
2022/09/05 10:07:54;;;;;;;2.40;2.30;;;22.10;99.90;;;;;;474739;249;28896;-70
2022/09/05 10:09:55;;;;;;;2.20;2.10;;;22.10;99.90;;;;;;479023;248;28797;-69
2022/09/05 10:11:56;;;;;;;2.20;2.10;;;22.20;99.90;;;;;;474805;249;28949;-73
2022/09/05 10:13:57;;;;;;;2.30;2.10;;;22.40;99.90;;;;;;479029;248;29236;-69
2022/09/05 10:15:58;;;;;;;2.53;2.43;;;22.30;99.90;;;;;;474796;249;29401;-70
2022/09/05 10:18:00;;;;;;;2.70;2.50;;;22.30;99.90;;;;;;479011;248;29224;-70
2022/09/05 10:20:01;;;;;;;2.30;2.17;;;22.20;99.90;;;;;;474793;249;28883;-69
2022/09/05 10:22:02;;;;;;;2.40;2.20;;;22.00;99.90;;;;;;479015;248;28891;-73
2022/09/05 10:24:03;;;;;;;2.40;2.20;;;21.90;99.90;;;;;;474778;250;28875;-70
2022/09/05 10:26:05;;;;;;;2.33;2.20;;;21.80;99.90;;;;;;479008;245;28808;-70
2022/09/05 10:28:06;;;;;;;1.90;1.80;;;21.80;99.90;;;;;;474773;249;28874;-70
2022/09/05 10:30:07;;;;;;;2.20;2.10;;;22.00;99.90;;;;;;479012;248;28808;-70
2022/09/05 10:32:09;;;;;;;2.37;2.27;;;22.00;99.90;;;;;;474740;249;28929;-72
2022/09/05 10:34:10;;;;;;;2.03;1.93;;;22.20;99.90;;;;;;479033;248;28779;-69
2022/09/05 10:36:11;;;;;;;2.30;2.10;;;22.20;99.90;;;;;;474732;250;28981;-70